SBMG

Details ICAO SBMG (MGF)
Name REGIONAL DE MARINGA SILVIO NAME JUNIOR
Region Brazil
Timezone America/Sao_Paulo (UTC-2.0)
Plans Departing 27
Arriving 19
Stats Elevation 1,788 ft / 545 m (AMSL)
Location -23.476112° -52.016404°
Runways 1
Magnetic Variation 18.514° W
Sunrise 2017-12-10 08:36:00 UTC / 2017-12-10 06:36:00 Local
Sunset 2017-12-10 22:08:47 UTC / 2017-12-10 20:08:47 Local
Advertisement - Login to hide

Runways

ID Width Length Bearing (true) Bearing (mag) Surface Threshold Offset Overrun Length
09 147 ft / 45 m 6,893 ft / 2,101 m 77.96° 96.47° Asphalt 0 ft / 0 m 195 ft / 59 m
27 147 ft / 45 m 6,893 ft / 2,101 m 257.95° 276.46° Asphalt 0 ft / 0 m 195 ft / 59 m

Map

Weather


0- 5 10 15 20 25 30 35+ Temperature / ° C

Clouds and Precipitation
Forecast for 2017-12-11 06:00 UTC. Updated an hour ago

Ground ~20,000 ft ~40,000 ft Winds

METAR

SBMG 110200Z 25004KT CAVOK 24/16 Q1007

TAF

Not found

Frequencies

Tower 131.95 MHz RDO
Warning: Do not use this data for real-world aviation or navigation. No guarantee of current accuracy is given.